sensor_id;sensor_type;location;lat;lon;timestamp;P1;durP1;ratioP1;P2;durP2;ratioP2
26512;SDS011;14186;53.822;10.152;2022-12-20T00:01:13;11.98;;;7.72;;
26512;SDS011;14186;53.822;10.152;2022-12-20T00:06:13;12.32;;;6.97;;
26512;SDS011;14186;53.822;10.152;2022-12-20T00:11:13;12.48;;;7.40;;
26512;SDS011;14186;53.822;10.152;2022-12-20T00:16:15;13.05;;;6.88;;
26512;SDS011;14186;53.822;10.152;2022-12-20T00:21:16;15.73;;;7.55;;
26512;SDS011;14186;53.822;10.152;2022-12-20T00:26:16;12.05;;;6.95;;
26512;SDS011;14186;53.822;10.152;2022-12-20T00:31:20;11.88;;;7.00;;
26512;SDS011;14186;53.822;10.152;2022-12-20T00:36:20;11.40;;;6.72;;
26512;SDS011;14186;53.822;10.152;2022-12-20T00:41:21;13.07;;;7.15;;
26512;SDS011;14186;53.822;10.152;2022-12-20T00:46:23;12.15;;;6.70;;
26512;SDS011;14186;53.822;10.152;2022-12-20T00:51:24;12.82;;;7.15;;
26512;SDS011;14186;53.822;10.152;2022-12-20T00:56:24;14.05;;;7.15;;
26512;SDS011;14186;53.822;10.152;2022-12-20T01:01:27;12.52;;;6.75;;
26512;SDS011;14186;53.822;10.152;2022-12-20T01:06:28;13.50;;;6.82;;
26512;SDS011;14186;53.822;10.152;2022-12-20T01:11:29;11.80;;;6.78;;
26512;SDS011;14186;53.822;10.152;2022-12-20T01:16:31;11.90;;;6.63;;
26512;SDS011;14186;53.822;10.152;2022-12-20T01:21:32;11.93;;;6.38;;
26512;SDS011;14186;53.822;10.152;2022-12-20T01:26:32;13.18;;;6.75;;
26512;SDS011;14186;53.822;10.152;2022-12-20T01:31:34;12.35;;;6.72;;
26512;SDS011;14186;53.822;10.152;2022-12-20T01:36:35;12.05;;;6.43;;
26512;SDS011;14186;53.822;10.152;2022-12-20T01:41:36;16.75;;;6.50;;
26512;SDS011;14186;53.822;10.152;2022-12-20T01:46:37;13.88;;;6.32;;
26512;SDS011;14186;53.822;10.152;2022-12-20T01:51:38;12.40;;;6.30;;
26512;SDS011;14186;53.822;10.152;2022-12-20T01:56:39;13.32;;;6.57;;
26512;SDS011;14186;53.822;10.152;2022-12-20T02:01:43;12.00;;;5.95;;
26512;SDS011;14186;53.822;10.152;2022-12-20T02:06:43;14.38;;;7.00;;
26512;SDS011;14186;53.822;10.152;2022-12-20T02:11:53;12.70;;;6.75;;
26512;SDS011;14186;53.822;10.152;2022-12-20T02:16:58;10.20;;;5.63;;
26512;SDS011;14186;53.822;10.152;2022-12-20T02:22:03;12.32;;;5.95;;
26512;SDS011;14186;53.822;10.152;2022-12-20T02:32:35;10.30;;;6.55;;
26512;SDS011;14186;53.822;10.152;2022-12-20T02:37:36;13.85;;;6.13;;
26512;SDS011;14186;53.822;10.152;2022-12-20T02:42:36;13.77;;;6.32;;
26512;SDS011;14186;53.822;10.152;2022-12-20T02:47:38;12.93;;;5.80;;
26512;SDS011;14186;53.822;10.152;2022-12-20T02:52:38;12.77;;;5.72;;
26512;SDS011;14186;53.822;10.152;2022-12-20T02:57:41;14.07;;;6.80;;
26512;SDS011;14186;53.822;10.152;2022-12-20T03:02:44;10.93;;;6.22;;
26512;SDS011;14186;53.822;10.152;2022-12-20T03:07:44;13.13;;;6.45;;
26512;SDS011;14186;53.822;10.152;2022-12-20T03:12:44;10.30;;;6.18;;
26512;SDS011;14186;53.822;10.152;2022-12-20T03:17:46;13.27;;;6.20;;
26512;SDS011;14186;53.822;10.152;2022-12-20T03:22:46;9.95;;;5.47;;
26512;SDS011;14186;53.822;10.152;2022-12-20T03:27:47;10.30;;;6.25;;
26512;SDS011;14186;53.822;10.152;2022-12-20T03:32:49;14.00;;;6.10;;
26512;SDS011;14186;53.822;10.152;2022-12-20T03:37:49;9.38;;;5.28;;
26512;SDS011;14186;53.822;10.152;2022-12-20T03:42:49;9.77;;;5.45;;
26512;SDS011;14186;53.822;10.152;2022-12-20T03:47:51;9.48;;;5.20;;
26512;SDS011;14186;53.822;10.152;2022-12-20T03:52:51;9.43;;;5.20;;
26512;SDS011;14186;53.822;10.152;2022-12-20T03:57:51;9.05;;;5.28;;
26512;SDS011;14186;53.822;10.152;2022-12-20T04:02:53;9.32;;;4.57;;
26512;SDS011;14186;53.822;10.152;2022-12-20T04:07:53;11.10;;;5.75;;
26512;SDS011;14186;53.822;10.152;2022-12-20T04:12:53;8.90;;;4.75;;
26512;SDS011;14186;53.822;10.152;2022-12-20T04:17:55;9.55;;;5.10;;
26512;SDS011;14186;53.822;10.152;2022-12-20T04:22:55;9.77;;;4.70;;
26512;SDS011;14186;53.822;10.152;2022-12-20T04:27:55;8.82;;;4.72;;
26512;SDS011;14186;53.822;10.152;2022-12-20T04:32:57;8.13;;;4.75;;
26512;SDS011;14186;53.822;10.152;2022-12-20T04:37:57;10.05;;;5.20;;
26512;SDS011;14186;53.822;10.152;2022-12-20T04:42:57;10.38;;;4.47;;
26512;SDS011;14186;53.822;10.152;2022-12-20T04:47:59;8.30;;;4.90;;
26512;SDS011;14186;53.822;10.152;2022-12-20T04:52:59;9.70;;;5.47;;
26512;SDS011;14186;53.822;10.152;2022-12-20T04:57:59;9.38;;;4.55;;
26512;SDS011;14186;53.822;10.152;2022-12-20T05:03:01;8.30;;;4.80;;
26512;SDS011;14186;53.822;10.152;2022-12-20T05:08:01;7.57;;;4.05;;
26512;SDS011;14186;53.822;10.152;2022-12-20T05:13:01;7.40;;;3.60;;
26512;SDS011;14186;53.822;10.152;2022-12-20T05:18:03;9.23;;;4.50;;
26512;SDS011;14186;53.822;10.152;2022-12-20T05:23:03;9.95;;;4.30;;
26512;SDS011;14186;53.822;10.152;2022-12-20T05:28:03;9.80;;;4.97;;
26512;SDS011;14186;53.822;10.152;2022-12-20T05:33:05;8.82;;;4.45;;
26512;SDS011;14186;53.822;10.152;2022-12-20T05:38:05;9.95;;;5.10;;
26512;SDS011;14186;53.822;10.152;2022-12-20T05:43:05;8.43;;;4.78;;
26512;SDS011;14186;53.822;10.152;2022-12-20T05:48:07;12.75;;;5.10;;
26512;SDS011;14186;53.822;10.152;2022-12-20T05:53:07;12.65;;;5.80;;
26512;SDS011;14186;53.822;10.152;2022-12-20T05:58:07;12.18;;;7.18;;
26512;SDS011;14186;53.822;10.152;2022-12-20T06:03:09;10.45;;;6.28;;
26512;SDS011;14186;53.822;10.152;2022-12-20T06:08:09;11.30;;;5.53;;
26512;SDS011;14186;53.822;10.152;2022-12-20T06:13:10;9.02;;;5.50;;
26512;SDS011;14186;53.822;10.152;2022-12-20T06:18:11;10.13;;;5.40;;
26512;SDS011;14186;53.822;10.152;2022-12-20T06:23:11;10.57;;;5.57;;
26512;SDS011;14186;53.822;10.152;2022-12-20T06:28:12;9.80;;;4.85;;
26512;SDS011;14186;53.822;10.152;2022-12-20T06:33:13;10.18;;;5.03;;
26512;SDS011;14186;53.822;10.152;2022-12-20T06:38:13;9.63;;;4.72;;
26512;SDS011;14186;53.822;10.152;2022-12-20T06:43:13;8.15;;;4.90;;
26512;SDS011;14186;53.822;10.152;2022-12-20T06:48:15;9.32;;;5.25;;
26512;SDS011;14186;53.822;10.152;2022-12-20T06:53:15;8.65;;;5.22;;
26512;SDS011;14186;53.822;10.152;2022-12-20T06:58:16;10.60;;;4.43;;
26512;SDS011;14186;53.822;10.152;2022-12-20T07:03:17;8.60;;;4.90;;
26512;SDS011;14186;53.822;10.152;2022-12-20T07:08:17;10.50;;;5.25;;
26512;SDS011;14186;53.822;10.152;2022-12-20T07:13:18;10.07;;;5.67;;
26512;SDS011;14186;53.822;10.152;2022-12-20T07:18:19;11.93;;;5.68;;
26512;SDS011;14186;53.822;10.152;2022-12-20T07:23:19;8.77;;;4.82;;
26512;SDS011;14186;53.822;10.152;2022-12-20T07:28:19;11.63;;;5.07;;
26512;SDS011;14186;53.822;10.152;2022-12-20T07:33:21;9.25;;;5.10;;
26512;SDS011;14186;53.822;10.152;2022-12-20T07:38:21;8.10;;;4.32;;
26512;SDS011;14186;53.822;10.152;2022-12-20T07:43:22;11.15;;;5.35;;
26512;SDS011;14186;53.822;10.152;2022-12-20T07:48:23;11.05;;;4.93;;
26512;SDS011;14186;53.822;10.152;2022-12-20T07:53:23;10.52;;;6.22;;
26512;SDS011;14186;53.822;10.152;2022-12-20T07:58:26;10.70;;;5.22;;
26512;SDS011;14186;53.822;10.152;2022-12-20T08:03:29;9.52;;;5.05;;
26512;SDS011;14186;53.822;10.152;2022-12-20T08:08:32;8.70;;;5.28;;
26512;SDS011;14186;53.822;10.152;2022-12-20T08:13:34;10.38;;;5.95;;
26512;SDS011;14186;53.822;10.152;2022-12-20T08:18:36;9.55;;;5.53;;
26512;SDS011;14186;53.822;10.152;2022-12-20T08:23:36;11.13;;;5.28;;
26512;SDS011;14186;53.822;10.152;2022-12-20T08:28:36;9.10;;;5.03;;
26512;SDS011;14186;53.822;10.152;2022-12-20T08:33:38;9.80;;;5.00;;
26512;SDS011;14186;53.822;10.152;2022-12-20T08:38:38;10.15;;;5.28;;
26512;SDS011;14186;53.822;10.152;2022-12-20T08:43:39;10.40;;;4.80;;
26512;SDS011;14186;53.822;10.152;2022-12-20T08:48:41;9.60;;;4.95;;
26512;SDS011;14186;53.822;10.152;2022-12-20T08:53:41;7.85;;;4.35;;
26512;SDS011;14186;53.822;10.152;2022-12-20T08:58:41;8.95;;;4.15;;
26512;SDS011;14186;53.822;10.152;2022-12-20T09:03:45;7.90;;;5.07;;
26512;SDS011;14186;53.822;10.152;2022-12-20T09:08:46;9.07;;;4.35;;
26512;SDS011;14186;53.822;10.152;2022-12-20T09:13:47;9.88;;;4.82;;
26512;SDS011;14186;53.822;10.152;2022-12-20T09:18:49;8.90;;;4.20;;
26512;SDS011;14186;53.822;10.152;2022-12-20T09:23:50;9.20;;;4.30;;
26512;SDS011;14186;53.822;10.152;2022-12-20T09:28:51;9.40;;;4.85;;
26512;SDS011;14186;53.822;10.152;2022-12-20T09:33:53;8.25;;;4.35;;
26512;SDS011;14186;53.822;10.152;2022-12-20T09:38:54;9.23;;;4.57;;
26512;SDS011;14186;53.822;10.152;2022-12-20T09:43:54;7.55;;;4.03;;
26512;SDS011;14186;53.822;10.152;2022-12-20T09:48:56;6.87;;;4.07;;
26512;SDS011;14186;53.822;10.152;2022-12-20T09:54:00;7.35;;;3.97;;
26512;SDS011;14186;53.822;10.152;2022-12-20T09:59:05;8.68;;;4.32;;
26512;SDS011;14186;53.822;10.152;2022-12-20T10:04:11;9.25;;;4.50;;
26512;SDS011;14186;53.822;10.152;2022-12-20T10:09:19;7.68;;;3.90;;
26512;SDS011;14186;53.822;10.152;2022-12-20T10:14:29;6.90;;;4.00;;
26512;SDS011;14186;53.822;10.152;2022-12-20T10:24:58;8.05;;;4.65;;
26512;SDS011;14186;53.822;10.152;2022-12-20T10:30:00;12.45;;;5.15;;
26512;SDS011;14186;53.822;10.152;2022-12-20T10:35:11;10.50;;;5.60;;
26512;SDS011;14186;53.822;10.152;2022-12-20T10:40:20;10.17;;;5.30;;
26512;SDS011;14186;53.822;10.152;2022-12-20T10:45:31;10.60;;;5.03;;
26512;SDS011;14186;53.822;10.152;2022-12-20T10:50:32;11.85;;;5.35;;
26512;SDS011;14186;53.822;10.152;2022-12-20T10:55:35;12.77;;;6.32;;
26512;SDS011;14186;53.822;10.152;2022-12-20T11:00:35;10.07;;;5.20;;
26512;SDS011;14186;53.822;10.152;2022-12-20T11:05:35;11.10;;;6.88;;
26512;SDS011;14186;53.822;10.152;2022-12-20T11:10:38;9.27;;;5.05;;
26512;SDS011;14186;53.822;10.152;2022-12-20T11:15:38;11.35;;;5.45;;
26512;SDS011;14186;53.822;10.152;2022-12-20T11:20:46;8.82;;;4.97;;
26512;SDS011;14186;53.822;10.152;2022-12-20T11:25:57;9.20;;;5.13;;
26512;SDS011;14186;53.822;10.152;2022-12-20T11:31:03;7.93;;;5.07;;
26512;SDS011;14186;53.822;10.152;2022-12-20T11:36:07;13.65;;;7.22;;
26512;SDS011;14186;53.822;10.152;2022-12-20T11:41:17;9.52;;;5.40;;
26512;SDS011;14186;53.822;10.152;2022-12-20T11:46:19;8.88;;;5.75;;
26512;SDS011;14186;53.822;10.152;2022-12-20T11:51:21;9.20;;;5.22;;
26512;SDS011;14186;53.822;10.152;2022-12-20T11:56:24;10.98;;;5.45;;
26512;SDS011;14186;53.822;10.152;2022-12-20T12:01:27;8.00;;;4.55;;
26512;SDS011;14186;53.822;10.152;2022-12-20T12:06:28;8.02;;;4.70;;
26512;SDS011;14186;53.822;10.152;2022-12-20T12:11:33;8.48;;;4.50;;
26512;SDS011;14186;53.822;10.152;2022-12-20T12:16:36;10.00;;;4.55;;
26512;SDS011;14186;53.822;10.152;2022-12-20T12:21:38;12.15;;;4.30;;
26512;SDS011;14186;53.822;10.152;2022-12-20T12:26:41;7.40;;;4.20;;
26512;SDS011;14186;53.822;10.152;2022-12-20T12:31:43;9.02;;;4.22;;
26512;SDS011;14186;53.822;10.152;2022-12-20T12:36:49;8.60;;;3.92;;
26512;SDS011;14186;53.822;10.152;2022-12-20T12:42:02;9.55;;;4.63;;
26512;SDS011;14186;53.822;10.152;2022-12-20T12:47:09;6.00;;;3.08;;
26512;SDS011;14186;53.822;10.152;2022-12-20T12:52:24;7.50;;;3.40;;
26512;SDS011;14186;53.822;10.152;2022-12-20T12:57:26;6.22;;;3.60;;
26512;SDS011;14186;53.822;10.152;2022-12-20T13:02:34;7.90;;;4.13;;
26512;SDS011;14186;53.822;10.152;2022-12-20T13:07:40;8.63;;;4.03;;
26512;SDS011;14186;53.822;10.152;2022-12-20T13:17:57;8.13;;;4.13;;
26512;SDS011;14186;53.822;10.152;2022-12-20T13:23:13;6.53;;;4.15;;
26512;SDS011;14186;53.822;10.152;2022-12-20T13:33:45;7.30;;;4.13;;
26512;SDS011;14186;53.822;10.152;2022-12-20T13:43:56;7.85;;;4.05;;
26512;SDS011;14186;53.822;10.152;2022-12-20T13:48:58;8.65;;;4.70;;
26512;SDS011;14186;53.822;10.152;2022-12-20T13:54:00;8.05;;;4.65;;
26512;SDS011;14186;53.822;10.152;2022-12-20T13:59:03;8.25;;;4.65;;
26512;SDS011;14186;53.822;10.152;2022-12-20T14:04:05;8.30;;;4.55;;
26512;SDS011;14186;53.822;10.152;2022-12-20T14:09:24;8.77;;;4.57;;
26512;SDS011;14186;53.822;10.152;2022-12-20T14:14:25;8.52;;;4.22;;
26512;SDS011;14186;53.822;10.152;2022-12-20T14:19:27;10.63;;;4.75;;
26512;SDS011;14186;53.822;10.152;2022-12-20T14:24:27;8.15;;;4.95;;
26512;SDS011;14186;53.822;10.152;2022-12-20T14:29:28;10.53;;;5.40;;
26512;SDS011;14186;53.822;10.152;2022-12-20T14:34:30;12.13;;;5.57;;
26512;SDS011;14186;53.822;10.152;2022-12-20T14:39:32;9.20;;;5.03;;
26512;SDS011;14186;53.822;10.152;2022-12-20T14:44:32;10.35;;;6.55;;
26512;SDS011;14186;53.822;10.152;2022-12-20T14:49:34;10.02;;;6.05;;
26512;SDS011;14186;53.822;10.152;2022-12-20T14:54:41;8.98;;;5.30;;
26512;SDS011;14186;53.822;10.152;2022-12-20T14:59:41;11.90;;;5.93;;
26512;SDS011;14186;53.822;10.152;2022-12-20T15:04:56;11.98;;;5.80;;
26512;SDS011;14186;53.822;10.152;2022-12-20T15:09:56;16.80;;;6.03;;
26512;SDS011;14186;53.822;10.152;2022-12-20T15:14:56;8.82;;;5.35;;
26512;SDS011;14186;53.822;10.152;2022-12-20T15:19:58;11.45;;;6.03;;
26512;SDS011;14186;53.822;10.152;2022-12-20T15:24:59;10.60;;;5.80;;
26512;SDS011;14186;53.822;10.152;2022-12-20T15:29:59;13.07;;;6.28;;
26512;SDS011;14186;53.822;10.152;2022-12-20T15:35:01;10.05;;;6.15;;
26512;SDS011;14186;53.822;10.152;2022-12-20T15:40:02;14.27;;;7.38;;
26512;SDS011;14186;53.822;10.152;2022-12-20T15:45:02;11.05;;;6.60;;
26512;SDS011;14186;53.822;10.152;2022-12-20T15:50:05;9.90;;;5.85;;
26512;SDS011;14186;53.822;10.152;2022-12-20T15:55:07;14.57;;;7.68;;
26512;SDS011;14186;53.822;10.152;2022-12-20T16:00:08;10.82;;;6.18;;
26512;SDS011;14186;53.822;10.152;2022-12-20T16:05:11;13.48;;;7.30;;
26512;SDS011;14186;53.822;10.152;2022-12-20T16:10:12;10.38;;;6.60;;
26512;SDS011;14186;53.822;10.152;2022-12-20T16:15:16;12.43;;;6.50;;
26512;SDS011;14186;53.822;10.152;2022-12-20T16:20:19;10.95;;;6.97;;
26512;SDS011;14186;53.822;10.152;2022-12-20T16:25:22;11.00;;;6.63;;
26512;SDS011;14186;53.822;10.152;2022-12-20T16:30:23;14.82;;;7.55;;
26512;SDS011;14186;53.822;10.152;2022-12-20T16:35:26;11.85;;;7.00;;
26512;SDS011;14186;53.822;10.152;2022-12-20T16:40:28;12.43;;;7.20;;
26512;SDS011;14186;53.822;10.152;2022-12-20T16:45:29;12.00;;;7.13;;
26512;SDS011;14186;53.822;10.152;2022-12-20T16:50:31;10.50;;;6.80;;
26512;SDS011;14186;53.822;10.152;2022-12-20T16:55:31;12.27;;;7.75;;
26512;SDS011;14186;53.822;10.152;2022-12-20T17:00:31;13.13;;;7.75;;
26512;SDS011;14186;53.822;10.152;2022-12-20T17:05:33;12.93;;;7.78;;
26512;SDS011;14186;53.822;10.152;2022-12-20T17:10:34;13.38;;;8.70;;
26512;SDS011;14186;53.822;10.152;2022-12-20T17:15:34;15.05;;;8.18;;
26512;SDS011;14186;53.822;10.152;2022-12-20T17:20:36;16.15;;;9.07;;
26512;SDS011;14186;53.822;10.152;2022-12-20T17:25:36;19.67;;;10.18;;
26512;SDS011;14186;53.822;10.152;2022-12-20T17:30:36;16.90;;;10.05;;
26512;SDS011;14186;53.822;10.152;2022-12-20T17:35:38;15.43;;;9.68;;
26512;SDS011;14186;53.822;10.152;2022-12-20T17:40:38;15.18;;;9.82;;
26512;SDS011;14186;53.822;10.152;2022-12-20T17:45:38;15.13;;;9.98;;
26512;SDS011;14186;53.822;10.152;2022-12-20T17:50:40;18.17;;;10.18;;
26512;SDS011;14186;53.822;10.152;2022-12-20T17:55:40;15.18;;;9.02;;
26512;SDS011;14186;53.822;10.152;2022-12-20T18:00:40;13.80;;;8.85;;
26512;SDS011;14186;53.822;10.152;2022-12-20T18:05:42;14.13;;;9.55;;
26512;SDS011;14186;53.822;10.152;2022-12-20T18:10:42;15.57;;;8.60;;
26512;SDS011;14186;53.822;10.152;2022-12-20T18:15:42;12.82;;;8.85;;
26512;SDS011;14186;53.822;10.152;2022-12-20T18:20:43;16.25;;;8.73;;
26512;SDS011;14186;53.822;10.152;2022-12-20T18:25:44;15.18;;;10.05;;
26512;SDS011;14186;53.822;10.152;2022-12-20T18:30:44;18.05;;;9.25;;
26512;SDS011;14186;53.822;10.152;2022-12-20T18:35:45;16.90;;;9.48;;
26512;SDS011;14186;53.822;10.152;2022-12-20T18:40:45;21.02;;;10.32;;
26512;SDS011;14186;53.822;10.152;2022-12-20T18:45:46;23.02;;;11.95;;
26512;SDS011;14186;53.822;10.152;2022-12-20T18:50:47;17.20;;;9.90;;
26512;SDS011;14186;53.822;10.152;2022-12-20T18:55:48;19.45;;;11.25;;
26512;SDS011;14186;53.822;10.152;2022-12-20T19:00:50;19.75;;;11.55;;
26512;SDS011;14186;53.822;10.152;2022-12-20T19:05:52;17.70;;;10.18;;
26512;SDS011;14186;53.822;10.152;2022-12-20T19:10:52;17.15;;;10.05;;
26512;SDS011;14186;53.822;10.152;2022-12-20T19:15:58;18.42;;;11.23;;
26512;SDS011;14186;53.822;10.152;2022-12-20T19:21:04;16.63;;;10.75;;
26512;SDS011;14186;53.822;10.152;2022-12-20T19:31:05;21.10;;;11.75;;
26512;SDS011;14186;53.822;10.152;2022-12-20T19:36:11;24.20;;;13.25;;
26512;SDS011;14186;53.822;10.152;2022-12-20T19:41:11;23.95;;;13.30;;
26512;SDS011;14186;53.822;10.152;2022-12-20T19:46:12;23.83;;;12.27;;
26512;SDS011;14186;53.822;10.152;2022-12-20T19:51:14;20.23;;;12.47;;
26512;SDS011;14186;53.822;10.152;2022-12-20T19:56:15;21.55;;;13.15;;
26512;SDS011;14186;53.822;10.152;2022-12-20T20:01:16;21.73;;;12.75;;
26512;SDS011;14186;53.822;10.152;2022-12-20T20:06:18;24.20;;;13.82;;
26512;SDS011;14186;53.822;10.152;2022-12-20T20:11:19;25.80;;;13.55;;
26512;SDS011;14186;53.822;10.152;2022-12-20T20:16:19;23.85;;;13.25;;
26512;SDS011;14186;53.822;10.152;2022-12-20T20:21:21;27.00;;;15.68;;
26512;SDS011;14186;53.822;10.152;2022-12-20T20:26:22;26.70;;;15.15;;
26512;SDS011;14186;53.822;10.152;2022-12-20T20:31:22;27.70;;;16.63;;
26512;SDS011;14186;53.822;10.152;2022-12-20T20:36:24;30.83;;;16.60;;
26512;SDS011;14186;53.822;10.152;2022-12-20T20:41:24;27.73;;;16.77;;
26512;SDS011;14186;53.822;10.152;2022-12-20T20:46:24;28.67;;;16.48;;
26512;SDS011;14186;53.822;10.152;2022-12-20T20:51:26;26.90;;;16.63;;
26512;SDS011;14186;53.822;10.152;2022-12-20T20:56:26;29.17;;;16.20;;
26512;SDS011;14186;53.822;10.152;2022-12-20T21:01:26;29.48;;;18.13;;
26512;SDS011;14186;53.822;10.152;2022-12-20T21:06:28;33.40;;;18.15;;
26512;SDS011;14186;53.822;10.152;2022-12-20T21:11:28;37.92;;;19.90;;
26512;SDS011;14186;53.822;10.152;2022-12-20T21:16:28;34.50;;;18.58;;
26512;SDS011;14186;53.822;10.152;2022-12-20T21:21:30;31.58;;;18.95;;
26512;SDS011;14186;53.822;10.152;2022-12-20T21:26:30;32.85;;;19.23;;
26512;SDS011;14186;53.822;10.152;2022-12-20T21:31:30;34.20;;;18.45;;
26512;SDS011;14186;53.822;10.152;2022-12-20T21:36:32;32.40;;;19.65;;
26512;SDS011;14186;53.822;10.152;2022-12-20T21:41:32;30.55;;;17.38;;
26512;SDS011;14186;53.822;10.152;2022-12-20T21:46:32;32.92;;;18.88;;
26512;SDS011;14186;53.822;10.152;2022-12-20T21:51:34;32.22;;;19.23;;
26512;SDS011;14186;53.822;10.152;2022-12-20T21:56:34;33.72;;;19.02;;
26512;SDS011;14186;53.822;10.152;2022-12-20T22:01:34;28.90;;;17.52;;
26512;SDS011;14186;53.822;10.152;2022-12-20T22:06:36;29.27;;;17.65;;
26512;SDS011;14186;53.822;10.152;2022-12-20T22:11:37;28.58;;;17.65;;
26512;SDS011;14186;53.822;10.152;2022-12-20T22:16:37;29.85;;;17.02;;
26512;SDS011;14186;53.822;10.152;2022-12-20T22:21:39;28.50;;;16.95;;
26512;SDS011;14186;53.822;10.152;2022-12-20T22:26:39;31.75;;;17.27;;
26512;SDS011;14186;53.822;10.152;2022-12-20T22:31:39;27.98;;;15.85;;
26512;SDS011;14186;53.822;10.152;2022-12-20T22:36:40;29.02;;;16.67;;
26512;SDS011;14186;53.822;10.152;2022-12-20T22:41:41;27.45;;;15.73;;
26512;SDS011;14186;53.822;10.152;2022-12-20T22:46:41;24.27;;;14.85;;
26512;SDS011;14186;53.822;10.152;2022-12-20T22:51:42;26.67;;;15.02;;
26512;SDS011;14186;53.822;10.152;2022-12-20T22:56:43;24.98;;;14.63;;
26512;SDS011;14186;53.822;10.152;2022-12-20T23:01:43;26.25;;;15.32;;
26512;SDS011;14186;53.822;10.152;2022-12-20T23:06:44;25.50;;;15.10;;
26512;SDS011;14186;53.822;10.152;2022-12-20T23:11:44;28.02;;;15.32;;
26512;SDS011;14186;53.822;10.152;2022-12-20T23:16:45;24.02;;;13.65;;
26512;SDS011;14186;53.822;10.152;2022-12-20T23:21:46;24.13;;;14.30;;
26512;SDS011;14186;53.822;10.152;2022-12-20T23:26:46;26.30;;;14.82;;
26512;SDS011;14186;53.822;10.152;2022-12-20T23:31:47;22.50;;;13.05;;
26512;SDS011;14186;53.822;10.152;2022-12-20T23:36:48;21.55;;;12.93;;
26512;SDS011;14186;53.822;10.152;2022-12-20T23:41:48;21.35;;;12.77;;
26512;SDS011;14186;53.822;10.152;2022-12-20T23:46:48;25.15;;;12.57;;
26512;SDS011;14186;53.822;10.152;2022-12-20T23:51:50;20.52;;;13.00;;
26512;SDS011;14186;53.822;10.152;2022-12-20T23:56:50;20.17;;;12.60;;
